createdAt,value
2023-02-06T00:01:33.944Z,104620.63
2023-02-06T00:04:01.180Z,104635.78
2023-02-06T00:06:28.478Z,104589.72
2023-02-06T00:08:55.801Z,104615.44
2023-02-06T00:11:23.397Z,104645.50
2023-02-06T00:13:50.356Z,104594.97
2023-02-06T00:16:22.832Z,104661.25
2023-02-06T00:18:50.979Z,104595.03
2023-02-06T00:21:22.211Z,104597.72
2023-02-06T00:23:50.220Z,104646.38
2023-02-06T00:26:18.284Z,104672.09
2023-02-06T00:28:46.469Z,104603.13
2023-02-06T00:31:14.465Z,104593.41
2023-02-06T00:33:41.934Z,104582.75
2023-02-06T00:36:09.937Z,104584.47
2023-02-06T00:38:39.232Z,104655.44
2023-02-06T00:41:06.171Z,104658.06
2023-02-06T00:43:33.657Z,104616.47
2023-02-06T00:46:04.773Z,104593.38
2023-02-06T00:48:31.626Z,104612.06
2023-02-06T00:50:58.737Z,104612.88
2023-02-06T00:53:25.952Z,104608.41
2023-02-06T00:55:52.960Z,104583.72
2023-02-06T00:58:20.183Z,104598.53
2023-02-06T01:00:49.735Z,104593.34
2023-02-06T01:03:16.869Z,104590.75
2023-02-06T01:05:44.010Z,104666.84
2023-02-06T01:08:11.133Z,104594.97
2023-02-06T01:10:42.207Z,104641.00
2023-02-06T01:13:09.869Z,104637.47
2023-02-06T01:15:38.694Z,104642.88
2023-02-06T01:18:06.146Z,104604.75
2023-02-06T01:20:33.767Z,104627.91
2023-02-06T01:23:00.953Z,104614.47
2023-02-06T01:25:28.376Z,104645.44
2023-02-06T01:27:55.281Z,104634.97
2023-02-06T01:30:22.587Z,104620.75
2023-02-06T01:32:52.642Z,104633.94
2023-02-06T01:35:22.111Z,104586.44
2023-02-06T01:37:49.452Z,104587.41
2023-02-06T01:40:17.503Z,104594.66
2023-02-06T01:42:44.978Z,104594.63
2023-02-06T01:45:36.106Z,104650.25
2023-02-06T01:48:13.734Z,104627.34
2023-02-06T01:50:47.693Z,104654.66
2023-02-06T01:53:16.950Z,104583.09
2023-02-06T01:55:47.229Z,104586.69
2023-02-06T01:58:17.804Z,104635.31
2023-02-06T02:00:45.717Z,104601.72
2023-02-06T02:03:13.151Z,104580.66
2023-02-06T02:05:42.005Z,104598.22
2023-02-06T02:08:18.767Z,104624.78
2023-02-06T02:10:46.054Z,104634.44
2023-02-06T02:13:13.156Z,104589.38
2023-02-06T02:15:52.885Z,104554.97
2023-02-06T02:18:45.842Z,104614.09
2023-02-06T02:21:46.013Z,104603.47
2023-02-06T02:24:26.794Z,104615.94
2023-02-06T02:27:11.674Z,104618.69
2023-02-06T02:30:16.203Z,104617.69
2023-02-06T02:33:20.721Z,104608.00
2023-02-06T02:35:54.334Z,104605.25
2023-02-06T02:38:35.621Z,104607.81
2023-02-06T02:41:16.332Z,104576.78
2023-02-06T02:44:05.084Z,104555.47
2023-02-06T02:46:43.473Z,104583.91
2023-02-06T02:49:25.506Z,104547.69
2023-02-06T02:51:53.519Z,104582.25
2023-02-06T02:54:20.963Z,104606.09
2023-02-06T02:56:48.782Z,104576.06
2023-02-06T02:59:30.319Z,104557.41
2023-02-06T03:02:20.120Z,104598.13
2023-02-06T03:05:00.530Z,104541.47
2023-02-06T03:07:37.098Z,104549.31
2023-02-06T03:10:31.057Z,104602.50
2023-02-06T03:13:21.382Z,104594.47
2023-02-06T03:16:17.275Z,104563.47
2023-02-06T03:18:52.101Z,104548.22
2023-02-06T03:21:22.119Z,104546.47
2023-02-06T03:23:52.480Z,104566.75
2023-02-06T03:26:24.808Z,104580.88
2023-02-06T03:29:02.311Z,104579.97
2023-02-06T03:31:45.606Z,104541.97
2023-02-06T03:34:37.948Z,104543.81
2023-02-06T03:37:04.945Z,104597.09
2023-02-06T03:39:32.119Z,104551.03
2023-02-06T03:42:00.163Z,104554.41
2023-02-06T03:44:32.060Z,104535.97
2023-02-06T03:47:00.602Z,104584.31
2023-02-06T03:49:29.188Z,104603.69
2023-02-06T03:51:59.217Z,104600.22
2023-02-06T03:54:27.776Z,104555.88
2023-02-06T03:56:56.910Z,104596.03
2023-02-06T03:59:24.388Z,104583.44
2023-02-06T04:01:55.494Z,104549.88
2023-02-06T04:04:29.639Z,104535.69
2023-02-06T04:07:07.576Z,104560.44
2023-02-06T04:09:34.527Z,104552.34
2023-02-06T04:12:05.429Z,104569.03
2023-02-06T04:14:32.610Z,104594.03
2023-02-06T04:16:59.560Z,104561.16
2023-02-06T04:19:29.996Z,104548.69
2023-02-06T04:21:57.018Z,104573.13
2023-02-06T04:24:24.460Z,104585.50
2023-02-06T04:26:51.657Z,104608.69
2023-02-06T04:29:18.691Z,104543.94
2023-02-06T04:31:45.739Z,104587.31
2023-02-06T04:34:12.762Z,104557.97
2023-02-06T04:36:39.769Z,104614.81
2023-02-06T04:39:07.528Z,104574.09
2023-02-06T04:41:34.925Z,104561.03
2023-02-06T04:44:02.169Z,104565.41
2023-02-06T04:46:29.263Z,104528.25
2023-02-06T04:48:56.190Z,104534.34
2023-02-06T04:51:23.430Z,104595.56
2023-02-06T04:53:50.895Z,104561.03
2023-02-06T04:56:17.826Z,104540.88
2023-02-06T04:58:44.876Z,104585.88
2023-02-06T05:01:16.927Z,104565.47
2023-02-06T05:03:44.228Z,104580.56
2023-02-06T05:06:12.567Z,104552.28
2023-02-06T05:08:39.716Z,104581.53
2023-02-06T05:11:07.311Z,104580.97
2023-02-06T05:13:34.720Z,104535.97
2023-02-06T05:16:13.386Z,104543.72
2023-02-06T05:18:41.217Z,104600.22
2023-02-06T05:21:08.480Z,104563.84
2023-02-06T05:23:35.295Z,104563.72
2023-02-06T05:26:02.899Z,104620.31
2023-02-06T05:28:30.317Z,104557.47
2023-02-06T05:30:57.840Z,104564.63
2023-02-06T05:33:26.406Z,104602.59
2023-02-06T05:35:53.575Z,104607.13
2023-02-06T05:38:20.536Z,104553.06
2023-02-06T05:40:51.885Z,104591.84
2023-02-06T05:43:18.692Z,104617.47
2023-02-06T05:45:45.582Z,104558.06
2023-02-06T05:48:12.407Z,104591.59
2023-02-06T05:50:39.284Z,104587.97
2023-02-06T05:53:08.637Z,104588.19
2023-02-06T05:55:35.829Z,104561.53
2023-02-06T05:58:04.443Z,104620.06
2023-02-06T06:00:33.136Z,104591.97
2023-02-06T06:03:00.273Z,104603.44
2023-02-06T06:05:27.496Z,104596.16
2023-02-06T06:07:54.532Z,104569.63
2023-02-06T06:10:21.538Z,104606.78
2023-02-06T06:12:48.624Z,104551.66
2023-02-06T06:15:15.507Z,104552.53
2023-02-06T06:17:42.327Z,104612.78
2023-02-06T06:20:10.882Z,104603.78
2023-02-06T06:22:37.813Z,104559.53
2023-02-06T06:25:06.728Z,104577.25
2023-02-06T06:27:33.980Z,104615.28
2023-02-06T06:30:01.447Z,104609.97
2023-02-06T06:32:29.102Z,104578.00
2023-02-06T06:34:56.185Z,104599.97
2023-02-06T06:37:23.127Z,104596.41
2023-02-06T06:39:50.346Z,104618.38
2023-02-06T06:42:18.942Z,104557.19
2023-02-06T06:44:45.698Z,104619.25
2023-02-06T06:47:12.656Z,104567.81
2023-02-06T06:49:39.760Z,104567.75
2023-02-06T06:52:13.416Z,104558.06
2023-02-06T06:54:47.229Z,104606.78
2023-02-06T06:57:16.355Z,104556.94
2023-02-06T06:59:43.443Z,104596.69
2023-02-06T07:02:11.415Z,104573.75
2023-02-06T07:04:38.582Z,104595.06
2023-02-06T07:07:07.471Z,104584.38
2023-02-06T07:09:34.481Z,104613.47
2023-02-06T07:12:01.380Z,104620.31
2023-02-06T07:14:28.362Z,104568.00
2023-02-06T07:16:56.640Z,104592.00
2023-02-06T07:19:23.442Z,104540.63
2023-02-06T07:21:51.256Z,104575.25
2023-02-06T07:24:18.102Z,104597.47
2023-02-06T07:26:45.487Z,104547.16
2023-02-06T07:29:15.027Z,104521.56
2023-02-06T07:31:41.914Z,104520.22
2023-02-06T07:34:09.506Z,104573.31
2023-02-06T07:36:36.732Z,104515.13
2023-02-06T07:39:04.578Z,104541.88
2023-02-06T07:41:33.304Z,104493.16
2023-02-06T07:44:00.493Z,104509.06
2023-02-06T07:46:27.286Z,104552.34
2023-02-06T07:48:54.468Z,104503.72
2023-02-06T07:51:23.291Z,104494.13
2023-02-06T07:53:50.759Z,104524.44
2023-02-06T07:56:19.878Z,104523.88
2023-02-06T07:58:51.274Z,104519.41
2023-02-06T08:01:18.154Z,104525.44
2023-02-06T08:03:45.344Z,104508.72
2023-02-06T08:06:15.030Z,104529.22
2023-02-06T08:08:43.444Z,104502.59
2023-02-06T08:11:16.605Z,104528.44
2023-02-06T08:13:44.401Z,104523.50
2023-02-06T08:16:16.793Z,104520.97
2023-02-06T08:18:44.059Z,104538.41
2023-02-06T08:21:14.338Z,104525.94
2023-02-06T08:23:43.367Z,104471.28
2023-02-06T08:26:13.245Z,104490.09
2023-02-06T08:28:42.355Z,104452.16
2023-02-06T08:31:11.948Z,104479.53
2023-02-06T08:33:39.095Z,104513.16
2023-02-06T08:36:06.969Z,104452.31
2023-02-06T08:38:34.159Z,104490.28
2023-02-06T08:41:01.028Z,104471.91
2023-02-06T08:43:27.998Z,104484.38
2023-02-06T08:45:59.717Z,104464.84
2023-02-06T08:48:27.123Z,104463.97
2023-02-06T08:51:06.194Z,104513.59
2023-02-06T08:53:33.730Z,104486.19
2023-02-06T08:56:02.508Z,104474.13
2023-02-06T08:58:29.278Z,104489.44
2023-02-06T09:00:56.787Z,104494.75
2023-02-06T09:03:24.052Z,104453.09
2023-02-06T09:05:52.670Z,104509.66
2023-02-06T09:08:20.900Z,104465.53
2023-02-06T09:10:47.638Z,104470.00
2023-02-06T09:13:14.475Z,104442.59
2023-02-06T09:15:43.255Z,104475.34
2023-02-06T09:18:10.996Z,104448.00
2023-02-06T09:20:37.736Z,104464.81
2023-02-06T09:23:04.917Z,104477.91
2023-02-06T09:25:32.264Z,104485.00
2023-02-06T09:27:59.240Z,104493.84
2023-02-06T09:30:26.430Z,104508.75
2023-02-06T09:32:53.194Z,104465.66
2023-02-06T09:35:20.336Z,104453.38
2023-02-06T09:37:50.609Z,104504.53
2023-02-06T09:40:24.722Z,104484.31
2023-02-06T09:42:53.558Z,104531.03
2023-02-06T09:45:23.854Z,104516.94
2023-02-06T09:47:55.141Z,104511.50
2023-02-06T09:50:41.525Z,104502.78
2023-02-06T09:53:15.854Z,104532.81
2023-02-06T09:55:50.791Z,104503.75
2023-02-06T09:58:45.691Z,104497.84
2023-02-06T10:01:28.454Z,104480.13
2023-02-06T10:03:58.075Z,104535.00
2023-02-06T10:06:51.827Z,104467.97
2023-02-06T10:09:36.319Z,104524.66
2023-02-06T10:12:14.914Z,104514.03
2023-02-06T10:14:47.106Z,104522.00
2023-02-06T10:17:28.162Z,104497.16
2023-02-06T10:20:15.985Z,104544.97
2023-02-06T10:23:10.414Z,104540.66
2023-02-06T10:25:44.255Z,104541.44
2023-02-06T10:28:29.971Z,104517.66
2023-02-06T10:31:05.508Z,104496.38
2023-02-06T10:33:42.219Z,104533.56
2023-02-06T10:36:18.967Z,104530.13
2023-02-06T10:39:08.038Z,104525.72
2023-02-06T10:41:51.508Z,104508.91
2023-02-06T10:44:34.692Z,104515.13
2023-02-06T10:47:01.823Z,104486.97
2023-02-06T10:49:39.758Z,104485.16
2023-02-06T10:52:26.434Z,104529.41
2023-02-06T10:55:01.412Z,104489.63
2023-02-06T10:57:29.042Z,104490.44
2023-02-06T11:00:01.950Z,104470.94
2023-02-06T11:02:33.503Z,104460.34
2023-02-06T11:05:16.895Z,104493.00
2023-02-06T11:08:07.604Z,104508.97
2023-02-06T11:10:34.855Z,104496.66
2023-02-06T11:13:22.040Z,104511.63
2023-02-06T11:16:02.320Z,104504.75
2023-02-06T11:18:36.704Z,104528.59
2023-02-06T11:21:04.329Z,104528.59
2023-02-06T11:23:34.722Z,104497.66
2023-02-06T11:26:18.908Z,104518.88
2023-02-06T11:28:52.551Z,104524.22
2023-02-06T11:31:40.723Z,104523.34
2023-02-06T11:34:21.709Z,104510.91
2023-02-06T11:36:53.384Z,104522.38
2023-02-06T11:39:37.863Z,104482.75
2023-02-06T11:42:17.774Z,104509.28
2023-02-06T11:44:47.956Z,104470.53
2023-02-06T11:47:32.172Z,104433.56
2023-02-06T11:50:14.199Z,104482.19
2023-02-06T11:52:46.925Z,104446.75
2023-02-06T11:55:27.315Z,104461.78
2023-02-06T11:58:12.688Z,104481.34
2023-02-06T12:00:59.046Z,104416.06
2023-02-06T12:03:32.644Z,104459.31
2023-02-06T12:06:12.917Z,104485.13
2023-02-06T12:08:44.120Z,104450.66
2023-02-06T12:11:19.295Z,104474.53
2023-02-06T12:13:52.906Z,104456.88
2023-02-06T12:16:20.866Z,104445.31
2023-02-06T12:18:53.890Z,104460.31
2023-02-06T12:21:30.512Z,104476.28
2023-02-06T12:24:02.317Z,104466.56
2023-02-06T12:26:31.888Z,104408.31
2023-02-06T12:29:07.146Z,104414.53
2023-02-06T12:32:09.438Z,104465.88
2023-02-06T12:35:11.907Z,104435.88
2023-02-06T12:37:50.900Z,104474.75
2023-02-06T12:40:47.980Z,104415.53
2023-02-06T12:43:17.255Z,104433.22
2023-02-06T12:46:00.124Z,104450.09
2023-02-06T12:48:55.245Z,104454.53
2023-02-06T12:51:48.178Z,104457.19
2023-02-06T12:54:20.229Z,104405.91
2023-02-06T12:56:51.116Z,104460.63
2023-02-06T12:59:58.275Z,104455.44
2023-02-06T13:02:40.850Z,104437.91
2023-02-06T13:05:36.502Z,104369.16
2023-02-06T13:08:20.523Z,104431.78
2023-02-06T13:11:00.001Z,104398.28
2023-02-06T13:13:33.615Z,104440.59
2023-02-06T13:16:00.708Z,104417.78
2023-02-06T13:18:52.721Z,104425.88
2023-02-06T13:21:24.240Z,104424.03
2023-02-06T13:24:03.665Z,104422.25
2023-02-06T13:26:53.736Z,104416.09
2023-02-06T13:29:46.901Z,104423.13
2023-02-06T13:32:18.713Z,104423.94
2023-02-06T13:35:07.027Z,104421.34
2023-02-06T13:37:47.870Z,104414.28
2023-02-06T13:40:24.061Z,104401.97
2023-02-06T13:42:53.027Z,104372.84
2023-02-06T13:45:43.080Z,104370.25
2023-02-06T13:48:25.243Z,104395.00
2023-02-06T13:51:25.033Z,104403.78
2023-02-06T13:53:57.772Z,104388.91
2023-02-06T13:57:02.344Z,104378.34
2023-02-06T13:59:34.931Z,104383.59
2023-02-06T14:02:13.799Z,104372.13
2023-02-06T14:04:43.925Z,104382.75
2023-02-06T14:07:31.336Z,104363.38
2023-02-06T14:10:34.818Z,104380.09
2023-02-06T14:13:32.532Z,104347.47
2023-02-06T14:16:08.458Z,104381.00
2023-02-06T14:18:48.882Z,104366.84
2023-02-06T14:21:25.120Z,104380.06
2023-02-06T14:24:00.035Z,104378.25
2023-02-06T14:26:51.660Z,104377.34
2023-02-06T14:29:35.833Z,104374.78
2023-02-06T14:32:30.693Z,104378.28
2023-02-06T14:35:16.250Z,104354.53
2023-02-06T14:38:06.098Z,104370.38
2023-02-06T14:40:42.464Z,104371.28
2023-02-06T14:43:17.614Z,104371.31
2023-02-06T14:46:05.622Z,104351.00
2023-02-06T14:48:54.255Z,104365.16
2023-02-06T14:51:29.537Z,104313.09
2023-02-06T14:54:03.568Z,104307.81
2023-02-06T14:56:38.813Z,104356.22
2023-02-06T14:59:18.501Z,104356.22
2023-02-06T15:01:49.190Z,104331.53
2023-02-06T15:04:28.564Z,104331.41
2023-02-06T15:06:59.324Z,104386.16
2023-02-06T15:09:33.758Z,104331.44
2023-02-06T15:12:04.879Z,104351.72
2023-02-06T15:14:34.342Z,104372.84
2023-02-06T15:17:03.050Z,104346.38
2023-02-06T15:19:35.715Z,104391.34
2023-02-06T15:22:11.472Z,104419.47
2023-02-06T15:24:58.044Z,104401.81
2023-02-06T15:27:31.613Z,104383.19
2023-02-06T15:29:59.684Z,104366.50
2023-02-06T15:32:35.016Z,104350.53
2023-02-06T15:35:02.623Z,104364.75
2023-02-06T15:37:35.397Z,104352.47
2023-02-06T15:40:14.366Z,104354.13
2023-02-06T15:42:41.575Z,104347.00
2023-02-06T15:45:18.324Z,104396.44
2023-02-06T15:47:46.592Z,104376.94
2023-02-06T15:50:19.196Z,104339.00
2023-02-06T15:52:47.922Z,104340.75
2023-02-06T15:55:29.488Z,104385.78
2023-02-06T15:57:58.738Z,104321.22
2023-02-06T16:00:34.484Z,104335.41
2023-02-06T16:03:07.963Z,104355.59
2023-02-06T16:05:40.883Z,104396.13
2023-02-06T16:08:21.416Z,104325.50
2023-02-06T16:11:40.657Z,104354.50
2023-02-06T16:14:17.071Z,104388.81
2023-02-06T16:17:24.541Z,104370.22
2023-02-06T16:19:58.560Z,104333.94
2023-02-06T16:22:34.484Z,104327.81
2023-02-06T16:25:23.577Z,104363.91
2023-02-06T16:27:51.429Z,104351.50
2023-02-06T16:30:30.553Z,104385.88
2023-02-06T16:33:00.348Z,104346.06
2023-02-06T16:35:28.661Z,104351.34
2023-02-06T16:37:55.858Z,104396.34
2023-02-06T16:40:23.877Z,104351.25
2023-02-06T16:42:53.652Z,104406.09
2023-02-06T16:45:23.862Z,104379.63
2023-02-06T16:47:51.592Z,104406.06
2023-02-06T16:50:18.682Z,104359.25
2023-02-06T16:52:54.574Z,104391.88
2023-02-06T16:55:25.468Z,104355.53
2023-02-06T16:58:01.914Z,104394.25
2023-02-06T17:00:31.708Z,104386.97
2023-02-06T17:02:59.845Z,104384.25
2023-02-06T17:05:28.422Z,104385.88
2023-02-06T17:07:55.585Z,104412.38
2023-02-06T17:10:27.316Z,104371.69
2023-02-06T17:12:54.816Z,104356.63
2023-02-06T17:15:21.731Z,104410.38
2023-02-06T17:17:48.951Z,104360.03
2023-02-06T17:20:31.778Z,104349.34
2023-02-06T17:22:59.150Z,104405.84
2023-02-06T17:25:26.570Z,104386.28
2023-02-06T17:27:54.086Z,104355.31
2023-02-06T17:30:24.719Z,104353.56
2023-02-06T17:32:54.513Z,104350.91
2023-02-06T17:35:21.688Z,104357.81
2023-02-06T17:37:51.488Z,104371.84
2023-02-06T17:40:27.884Z,104350.31
2023-02-06T17:42:56.649Z,104338.00
2023-02-06T17:45:23.919Z,104353.00
2023-02-06T17:47:51.327Z,104405.97
2023-02-06T17:50:23.928Z,104395.19
2023-02-06T17:52:53.436Z,104363.28
2023-02-06T17:55:20.357Z,104409.22
2023-02-06T17:57:47.697Z,104369.38
2023-02-06T18:00:17.718Z,104374.69
2023-02-06T18:02:45.159Z,104398.69
2023-02-06T18:05:12.458Z,104342.13
2023-02-06T18:07:40.428Z,104371.34
2023-02-06T18:10:08.767Z,104368.63
2023-02-06T18:12:39.368Z,104347.38
2023-02-06T18:15:06.952Z,104330.63
2023-02-06T18:17:34.626Z,104351.72
2023-02-06T18:20:02.119Z,104329.44
2023-02-06T18:22:29.389Z,104346.09
2023-02-06T18:24:56.607Z,104324.81
2023-02-06T18:27:23.848Z,104351.16
2023-02-06T18:29:55.276Z,104314.88
2023-02-06T18:32:23.503Z,104369.63
2023-02-06T18:34:50.789Z,104368.88
2023-02-06T18:37:18.092Z,104387.31
2023-02-06T18:39:45.620Z,104329.66
2023-02-06T18:42:31.141Z,104342.13
2023-02-06T18:45:02.101Z,104338.47
2023-02-06T18:47:30.894Z,104316.28
2023-02-06T18:49:58.048Z,104378.81
2023-02-06T18:52:25.118Z,104376.97
2023-02-06T18:54:52.904Z,104303.63
2023-02-06T18:57:21.132Z,104313.25
2023-02-06T18:59:49.488Z,104338.94
2023-02-06T19:02:16.935Z,104315.19
2023-02-06T19:04:43.978Z,104346.97
2023-02-06T19:07:12.667Z,104359.25
2023-02-06T19:09:40.170Z,104314.03
2023-02-06T19:12:07.317Z,104313.91
2023-02-06T19:14:34.497Z,104292.50
2023-02-06T19:17:01.662Z,104325.88
2023-02-06T19:19:28.816Z,104281.59
2023-02-06T19:21:57.635Z,104307.31
2023-02-06T19:24:26.454Z,104270.22
2023-02-06T19:26:53.393Z,104297.53
2023-02-06T19:29:35.148Z,104280.59
2023-02-06T19:32:05.758Z,104348.59
2023-02-06T19:34:36.338Z,104267.16
2023-02-06T19:37:09.539Z,104274.03
2023-02-06T19:39:38.152Z,104308.28
2023-02-06T19:42:06.819Z,104345.31
2023-02-06T19:44:34.971Z,104280.66
2023-02-06T19:47:04.707Z,104276.19
2023-02-06T19:49:32.154Z,104276.09
2023-02-06T19:52:00.224Z,104269.13
2023-02-06T19:54:31.470Z,104337.38
2023-02-06T19:57:00.734Z,104264.50
2023-02-06T19:59:29.434Z,104333.50
2023-02-06T20:01:57.503Z,104334.19
2023-02-06T20:04:28.285Z,104311.94
2023-02-06T20:07:04.333Z,104290.00
2023-02-06T20:09:36.703Z,104273.00
2023-02-06T20:14:55.593Z,104272.56
2023-02-06T20:17:24.097Z,104270.88
2023-02-06T20:20:01.618Z,104267.19
2023-02-06T20:22:28.979Z,104337.03
2023-02-06T20:24:55.970Z,104325.66
2023-02-06T20:27:23.118Z,104275.09
2023-02-06T20:29:52.736Z,104272.44
2023-02-06T20:32:20.007Z,104307.72
2023-02-06T20:34:50.640Z,104240.53
2023-02-06T20:37:18.782Z,104275.69
2023-02-06T20:39:45.864Z,104260.63
2023-02-06T20:42:12.804Z,104255.41
2023-02-06T20:44:40.115Z,104254.56
2023-02-06T20:47:07.245Z,104256.09
2023-02-06T20:49:39.326Z,104324.34
2023-02-06T20:52:08.593Z,104265.06
2023-02-06T20:54:35.532Z,104249.97
2023-02-06T20:57:02.572Z,104264.91
2023-02-06T20:59:29.560Z,104275.47
2023-02-06T21:01:58.097Z,104268.31
2023-02-06T21:04:25.750Z,104298.97
2023-02-06T21:06:52.955Z,104328.25
2023-02-06T21:09:19.686Z,104324.69
2023-02-06T21:11:50.194Z,104333.53
2023-02-06T21:14:18.255Z,104336.91
2023-02-06T21:16:45.552Z,104340.22
2023-02-06T21:19:15.147Z,104341.13
2023-02-06T21:21:45.605Z,104340.16
2023-02-06T21:24:15.597Z,104345.25
2023-02-06T21:26:43.109Z,104336.44
2023-02-06T21:29:12.902Z,104340.75
2023-02-06T21:31:41.030Z,104345.88
2023-02-06T21:34:12.564Z,104341.38
2023-02-06T21:36:40.780Z,104338.81
2023-02-06T21:39:08.381Z,104341.31
2023-02-06T21:41:36.493Z,104342.09
2023-02-06T21:44:03.531Z,104325.22
2023-02-06T21:46:34.689Z,104309.25
2023-02-06T21:49:02.926Z,104330.41
2023-02-06T21:51:29.827Z,104323.34
2023-02-06T21:53:56.991Z,104328.63
2023-02-06T21:56:28.404Z,104325.13
2023-02-06T21:58:55.693Z,104324.16
2023-02-06T22:01:26.670Z,104327.78
2023-02-06T22:03:53.997Z,104329.50
2023-02-06T22:06:21.571Z,104302.94
2023-02-06T22:08:53.636Z,104312.50
2023-02-06T22:11:23.730Z,104262.25
2023-02-06T22:13:51.698Z,104303.09
2023-02-06T22:16:22.367Z,104313.63
2023-02-06T22:18:49.839Z,104311.66
2023-02-06T22:21:19.524Z,104307.06
2023-02-06T22:23:48.398Z,104320.13
2023-02-06T22:26:18.692Z,104312.28
2023-02-06T22:28:46.860Z,104322.84
2023-02-06T22:31:23.436Z,104314.06
2023-02-06T22:33:51.564Z,104310.38
2023-02-06T22:36:26.297Z,104307.72
2023-02-06T22:38:59.935Z,104314.00
2023-02-06T22:41:26.856Z,104322.81
2023-02-06T22:43:53.724Z,104323.69
2023-02-06T22:46:25.667Z,104299.66
2023-02-06T22:48:52.963Z,104316.41
2023-02-06T22:51:21.784Z,104340.06
2023-02-06T22:53:49.192Z,104324.28
2023-02-06T22:56:26.849Z,104334.84
2023-02-06T22:58:56.848Z,104337.31
2023-02-06T23:01:26.154Z,104340.72
2023-02-06T23:03:54.384Z,104296.44
2023-02-06T23:06:22.451Z,104347.00
2023-02-06T23:08:50.583Z,104345.16
2023-02-06T23:11:17.540Z,104333.56
2023-02-06T23:13:45.552Z,104343.16
2023-02-06T23:16:13.464Z,104345.81
2023-02-06T23:18:40.213Z,104346.69
2023-02-06T23:21:10.854Z,104330.66
2023-02-06T23:23:38.936Z,104342.97
2023-02-06T23:26:10.315Z,104336.84
2023-02-06T23:28:38.293Z,104334.00
2023-02-06T23:31:05.822Z,104344.53
2023-02-06T23:33:32.773Z,104345.19
2023-02-06T23:36:20.356Z,104346.13
2023-02-06T23:38:49.994Z,104340.81
2023-02-06T23:41:22.548Z,104352.19
2023-02-06T23:43:58.642Z,104344.34
2023-02-06T23:46:26.867Z,104349.56
2023-02-06T23:48:53.913Z,104344.22
2023-02-06T23:51:24.095Z,104337.91
2023-02-06T23:53:51.428Z,104335.25
2023-02-06T23:56:21.324Z,104331.56
2023-02-06T23:58:48.697Z,104331.59
